Time;durP1;ratioP1;P1;durP2;ratioP2;P2;SDS_P1;SDS_P2;PMS_P1;PMS_P2;Temp;Humidity;BMP_temperature;BMP_pressure;BME280_temperature;BME280_humidity;BME280_pressure;Samples;Min_cycle;Max_cycle;Signal;HPM_P1;HPM_P2
2024/03/25 00:02:07;;;;;;;15.33;5.40;;;;;;;;;;5092769;28;20243;-75
2024/03/25 00:04:35;;;;;;;13.00;6.43;;;;;;;;;;5092475;28;20810;-75
2024/03/25 00:07:01;;;;;;;77.93;33.90;;;;;;;;;;5092866;28;20233;-75
2024/03/25 00:09:29;;;;;;;19.10;12.07;;;;;;;;;;5093477;28;20251;-75
2024/03/25 00:11:55;;;;;;;19.17;10.97;;;;;;;;;;5092674;28;20192;-75
2024/03/25 00:14:23;;;;;;;17.10;10.33;;;;;;;;;;5093009;28;20211;-75
2024/03/25 00:16:50;;;;;;;50.57;29.47;;;;;;;;;;5092231;28;20328;-75
2024/03/25 00:19:18;;;;;;;39.47;27.43;;;;;;;;;;5091880;28;20291;-75
2024/03/25 00:21:44;;;;;;;60.13;44.83;;;;;;;;;;5092679;28;20204;-76
2024/03/25 00:24:11;;;;;;;56.33;41.87;;;;;;;;;;5092207;28;20236;-75
2024/03/25 00:26:38;;;;;;;50.17;35.80;;;;;;;;;;5092706;28;20287;-75
2024/03/25 00:29:05;;;;;;;53.13;36.90;;;;;;;;;;5092430;28;20213;-75
2024/03/25 00:31:31;;;;;;;89.87;60.67;;;;;;;;;;5092408;28;20193;-74
2024/03/25 00:33:59;;;;;;;90.43;63.43;;;;;;;;;;5091706;28;20201;-75
2024/03/25 00:36:26;;;;;;;63.33;48.07;;;;;;;;;;5092471;28;21177;-75
2024/03/25 00:38:53;;;;;;;63.73;48.07;;;;;;;;;;5092156;28;20205;-74
2024/03/25 00:41:19;;;;;;;58.07;45.27;;;;;;;;;;5091838;28;20253;-74
2024/03/25 00:43:46;;;;;;;59.67;43.47;;;;;;;;;;5091409;28;20204;-75
2024/03/25 00:46:12;;;;;;;73.10;54.23;;;;;;;;;;5092005;28;20254;-75
2024/03/25 00:48:41;;;;;;;71.77;55.93;;;;;;;;;;5091969;28;20615;-74
2024/03/25 00:51:09;;;;;;;82.50;61.23;;;;;;;;;;5092266;28;20195;-75
2024/03/25 00:53:36;;;;;;;85.80;60.00;;;;;;;;;;5091945;28;20196;-75
2024/03/25 00:56:04;;;;;;;80.23;55.67;;;;;;;;;;5091424;28;20284;-75
2024/03/25 00:58:31;;;;;;;74.23;53.50;;;;;;;;;;5091671;28;20557;-74
2024/03/25 01:00:57;;;;;;;65.00;48.53;;;;;;;;;;5091557;28;20253;-75
2024/03/25 01:03:24;;;;;;;58.27;43.27;;;;;;;;;;5091705;28;20313;-75
2024/03/25 01:05:50;;;;;;;48.43;35.37;;;;;;;;;;5091543;28;20206;-75
2024/03/25 01:08:19;;;;;;;39.87;30.53;;;;;;;;;;5091896;28;20208;-75
2024/03/25 01:10:46;;;;;;;40.73;29.50;;;;;;;;;;5091602;28;20203;-75
2024/03/25 01:13:13;;;;;;;36.13;28.80;;;;;;;;;;5091463;28;20204;-75
2024/03/25 01:15:39;;;;;;;35.57;27.13;;;;;;;;;;5091605;28;20286;-76
2024/03/25 01:18:06;;;;;;;41.67;27.60;;;;;;;;;;5091224;28;20204;-75
2024/03/25 01:20:32;;;;;;;32.10;22.07;;;;;;;;;;5091741;28;20202;-76
2024/03/25 01:22:59;;;;;;;30.93;18.90;;;;;;;;;;5091723;28;20203;-75
2024/03/25 01:25:27;;;;;;;26.50;15.63;;;;;;;;;;5091665;28;20323;-75
2024/03/25 01:27:54;;;;;;;18.47;11.00;;;;;;;;;;5091715;28;20199;-76
2024/03/25 01:30:21;;;;;;;14.10;8.90;;;;;;;;;;5090884;28;20198;-73
2024/03/25 01:32:48;;;;;;;12.77;7.70;;;;;;;;;;5091541;28;20208;-75
2024/03/25 01:35:15;;;;;;;14.10;7.10;;;;;;;;;;5091518;28;20199;-75
2024/03/25 01:37:42;;;;;;;11.53;6.60;;;;;;;;;;5091727;28;20322;-75
2024/03/25 01:40:10;;;;;;;17.27;7.00;;;;;;;;;;5091722;28;20298;-74
2024/03/25 01:42:38;;;;;;;12.03;6.60;;;;;;;;;;5091361;28;20643;-75
2024/03/25 01:45:05;;;;;;;11.63;6.37;;;;;;;;;;5090928;28;20192;-75
2024/03/25 01:47:35;;;;;;;12.27;6.00;;;;;;;;;;5091284;28;20577;-75
2024/03/25 01:50:03;;;;;;;9.37;4.97;;;;;;;;;;5091622;28;20682;-75
2024/03/25 01:52:31;;;;;;;13.40;5.10;;;;;;;;;;5091234;28;20205;-75
2024/03/25 01:54:58;;;;;;;8.57;3.87;;;;;;;;;;5094627;28;20205;-75
2024/03/25 01:57:26;;;;;;;7.50;3.40;;;;;;;;;;5095262;28;20279;-75
2024/03/25 01:59:54;;;;;;;8.10;3.50;;;;;;;;;;5094916;28;20207;-75
2024/03/25 02:02:21;;;;;;;12.67;3.47;;;;;;;;;;5087736;28;20201;-74
2024/03/25 02:04:47;;;;;;;7.13;2.50;;;;;;;;;;5080871;28;20303;-74
2024/03/25 02:07:14;;;;;;;8.70;2.70;;;;;;;;;;5075243;28;20231;-75
2024/03/25 02:09:41;;;;;;;7.83;2.73;;;;;;;;;;5075219;28;20286;-75
2024/03/25 02:12:10;;;;;;;9.80;2.73;;;;;;;;;;5074936;28;20224;-75
2024/03/25 02:14:36;;;;;;;10.30;2.70;;;;;;;;;;5094042;28;20391;-75
2024/03/25 02:17:05;;;;;;;8.33;2.30;;;;;;;;;;5095058;28;20281;-75
2024/03/25 02:19:31;;;;;;;5.67;2.30;;;;;;;;;;5095515;28;20226;-75
2024/03/25 02:21:59;;;;;;;9.03;2.50;;;;;;;;;;5094733;28;20201;-75
2024/03/25 02:24:26;;;;;;;7.03;2.40;;;;;;;;;;5094686;28;20315;-74
2024/03/25 02:26:55;;;;;;;6.90;2.43;;;;;;;;;;5094911;28;20204;-75
2024/03/25 02:29:21;;;;;;;6.17;2.20;;;;;;;;;;5094428;28;20738;-75
2024/03/25 02:31:48;;;;;;;8.43;2.50;;;;;;;;;;5094853;28;20207;-75
2024/03/25 02:34:14;;;;;;;8.40;2.30;;;;;;;;;;5095288;28;20297;-75
2024/03/25 02:36:42;;;;;;;7.83;2.20;;;;;;;;;;5094361;28;20620;-75
2024/03/25 02:39:09;;;;;;;9.33;2.20;;;;;;;;;;5094200;28;20203;-75
2024/03/25 02:41:37;;;;;;;7.47;2.33;;;;;;;;;;5094656;28;20208;-75
2024/03/25 02:44:05;;;;;;;8.27;2.30;;;;;;;;;;5094411;28;20871;-75
2024/03/25 02:46:33;;;;;;;7.20;2.40;;;;;;;;;;5094579;28;20678;-75
2024/03/25 02:49:01;;;;;;;6.43;2.30;;;;;;;;;;5094525;28;20196;-75
2024/03/25 02:51:28;;;;;;;5.67;2.47;;;;;;;;;;5094461;28;20270;-75
2024/03/25 02:53:55;;;;;;;7.17;2.80;;;;;;;;;;5094385;28;20237;-75
2024/03/25 02:56:22;;;;;;;7.43;2.53;;;;;;;;;;5094523;28;20260;-74
2024/03/25 02:58:48;;;;;;;11.53;3.00;;;;;;;;;;5094026;28;20750;-75
2024/03/25 03:01:17;;;;;;;8.30;3.47;;;;;;;;;;5094206;28;20204;-75
2024/03/25 03:03:43;;;;;;;10.30;3.40;;;;;;;;;;5094482;28;20200;-75
2024/03/25 03:06:11;;;;;;;10.97;3.03;;;;;;;;;;5092849;28;20205;-75
2024/03/25 03:08:37;;;;;;;12.43;3.50;;;;;;;;;;5094077;28;20295;-74
2024/03/25 03:11:04;;;;;;;15.60;4.00;;;;;;;;;;5094036;28;20204;-76
2024/03/25 03:13:30;;;;;;;13.60;4.10;;;;;;;;;;5093699;28;20840;-75
2024/03/25 03:15:57;;;;;;;12.17;3.73;;;;;;;;;;5094014;28;20209;-75
2024/03/25 03:18:26;;;;;;;12.03;3.50;;;;;;;;;;5094461;28;20307;-75
2024/03/25 03:20:55;;;;;;;12.70;4.00;;;;;;;;;;5093871;28;20293;-76
2024/03/25 03:23:22;;;;;;;10.27;3.73;;;;;;;;;;5093619;28;20750;-75
2024/03/25 03:25:48;;;;;;;11.27;3.90;;;;;;;;;;5093844;28;20832;-75
2024/03/25 03:28:16;;;;;;;8.50;3.17;;;;;;;;;;5093628;28;20209;-75
2024/03/25 03:30:42;;;;;;;11.03;3.10;;;;;;;;;;5093365;28;20673;-75
2024/03/25 03:33:09;;;;;;;9.50;3.40;;;;;;;;;;5093672;28;20212;-75
2024/03/25 03:35:36;;;;;;;14.20;4.03;;;;;;;;;;5093680;28;20306;-75
2024/03/25 03:38:04;;;;;;;12.23;3.87;;;;;;;;;;5093339;28;20224;-76
2024/03/25 03:40:30;;;;;;;13.73;3.83;;;;;;;;;;5093421;28;20649;-74
2024/03/25 03:42:57;;;;;;;12.37;3.33;;;;;;;;;;5093447;28;20212;-75
2024/03/25 03:45:25;;;;;;;10.63;3.40;;;;;;;;;;5093661;28;20325;-75
2024/03/25 03:47:52;;;;;;;9.60;3.80;;;;;;;;;;5093325;28;20214;-75
2024/03/25 03:50:18;;;;;;;13.40;4.20;;;;;;;;;;5093417;28;20225;-75
2024/03/25 03:52:47;;;;;;;12.87;3.90;;;;;;;;;;5093432;28;20212;-75
2024/03/25 03:55:13;;;;;;;11.93;3.73;;;;;;;;;;5092709;28;20656;-76
2024/03/25 03:57:42;;;;;;;15.57;4.67;;;;;;;;;;5093619;28;20228;-74
2024/03/25 04:00:11;;;;;;;6.23;3.00;;;;;;;;;;5093157;28;20202;-76
2024/03/25 04:02:38;;;;;;;10.53;3.70;;;;;;;;;;5093180;28;20202;-76
2024/03/25 04:05:05;;;;;;;17.30;4.10;;;;;;;;;;5092848;28;20224;-76
2024/03/25 04:07:35;;;;;;;10.77;3.60;;;;;;;;;;5093140;28;20202;-76
2024/03/25 04:10:03;;;;;;;13.40;4.03;;;;;;;;;;5092694;28;20204;-76
2024/03/25 04:12:30;;;;;;;12.53;3.87;;;;;;;;;;5092956;28;20202;-74
2024/03/25 04:14:57;;;;;;;12.07;4.13;;;;;;;;;;5093369;28;20226;-76
2024/03/25 04:17:24;;;;;;;11.47;3.80;;;;;;;;;;5092663;28;20231;-76
2024/03/25 04:19:51;;;;;;;12.30;3.90;;;;;;;;;;5092903;28;20202;-75
2024/03/25 04:22:18;;;;;;;15.73;3.93;;;;;;;;;;5092765;28;20254;-76
2024/03/25 04:24:44;;;;;;;9.53;3.57;;;;;;;;;;5092236;28;20255;-76
2024/03/25 04:27:13;;;;;;;13.63;3.60;;;;;;;;;;5091973;28;20735;-75
2024/03/25 04:29:39;;;;;;;11.23;3.93;;;;;;;;;;5092826;28;20229;-76
2024/03/25 04:32:06;;;;;;;12.00;4.07;;;;;;;;;;5092426;28;20671;-76
2024/03/25 04:34:33;;;;;;;12.07;3.60;;;;;;;;;;5092642;28;20292;-76
